Time;durP1;ratioP1;P1;durP2;ratioP2;P2;SDS_P1;SDS_P2;PMS_P1;PMS_P2;Temp;Humidity;BMP_temperature;BMP_pressure;BME280_temperature;BME280_humidity;BME280_pressure;Samples;Min_cycle;Max_cycle;Signal;HPM_P1;HPM_P2
2021/10/22 00:01:31;;;;;;;;;;;;;;;7.56;93.58;99901.41;5013375;28;1030;-57
2021/10/22 00:03:57;;;;;;;;;;;;;;;7.62;93.06;99899.06;5013355;28;571;-57
2021/10/22 00:06:25;;;;;;;;;;;;;;;7.54;92.75;99904.50;5013138;28;1211;-57
2021/10/22 00:08:52;;;;;;;;;;;;;;;7.59;93.55;99899.84;5013247;28;830;-57
2021/10/22 00:11:18;;;;;;;;;;;;;;;7.82;93.92;99894.13;5013148;28;806;-57
2021/10/22 00:13:45;;;;;;;;;;;;;;;7.91;93.89;99897.34;5013177;28;811;-57
2021/10/22 00:16:10;;;;;;;;;;;;;;;7.87;93.62;99889.06;5013037;28;1261;-57
2021/10/22 05:20:07;;;;;;;;;;;;;;;6.36;97.24;99991.06;4991813;28;1578;-57
2021/10/22 05:22:35;;;;;;;;;;;;;;;6.55;96.76;99998.38;4992366;28;890;-58
2021/10/22 05:25:03;;;;;;;;;;;;;;;6.74;97.48;100002.94;4992292;28;1581;-58
2021/10/22 05:27:30;;;;;;;;;;;;;;;6.84;97.69;100007.03;4992250;28;996;-58
2021/10/22 05:29:56;;;;;;;;;;;;;;;6.90;96.91;100009.06;4992347;28;846;-58
2021/10/22 05:32:23;;;;;;;;;;;;;;;7.04;97.31;100008.47;4992244;28;890;-58
2021/10/22 05:34:49;;;;;;;;;;;;;;;7.25;98.42;100016.16;4992321;28;978;-58
2021/10/22 05:37:17;;;;;;;;;;;;;;;7.43;97.93;100018.34;4992217;28;811;-58
2021/10/22 05:39:44;;;;;;;;;;;;;;;7.65;98.22;100014.66;4991994;28;1914;-57
2021/10/22 05:42:10;;;;;;;;;;;;;;;7.67;96.84;100028.03;4992155;28;862;-58
2021/10/22 05:44:37;;;;;;;;;;;;;;;7.48;95.66;100029.00;4992112;28;926;-58
2021/10/22 05:47:04;;;;;;;;;;;;;;;7.40;95.60;100033.63;4992264;28;808;-58
2021/10/22 05:49:31;;;;;;;;;;;;;;;7.40;95.67;100038.34;4974712;28;1838;-58
2021/10/22 05:51:58;;;;;;;;;;;;;;;7.47;95.43;100035.69;4991999;28;862;-58
2021/10/22 05:54:24;;;;;;;;;;;;;;;7.69;94.94;100036.69;4991984;28;827;-58
2021/10/22 05:56:52;;;;;;;;;;;;;;;7.68;94.23;100037.84;4992122;28;858;-58
2021/10/22 05:59:18;;;;;;;;;;;;;;;7.77;94.65;100032.84;4991964;28;1918;-58
2021/10/22 06:01:45;;;;;;;;;;;;;;;7.89;94.54;100045.53;4992059;28;897;-58
2021/10/22 06:04:10;;;;;;;;;;;;;;;7.94;94.11;100050.72;4991892;28;962;-58
2021/10/22 06:06:37;;;;;;;;;;;;;;;7.98;94.22;100055.09;4991837;28;926;-58
2021/10/22 06:09:05;;;;;;;;;;;;;;;8.04;94.11;100061.03;4991842;28;996;-58
2021/10/22 06:11:31;;;;;;;;;;;;;;;8.07;93.65;100063.03;4991912;28;999;-58
2021/10/22 06:13:58;;;;;;;;;;;;;;;8.15;93.52;100064.69;4991864;28;907;-58
2021/10/22 06:16:24;;;;;;;;;;;;;;;8.27;93.45;100065.56;4992037;28;902;-58
2021/10/22 06:18:53;;;;;;;;;;;;;;;8.51;93.36;100066.97;4991629;28;1972;-58
2021/10/22 06:21:27;;;;;;;;;;;;;;;8.94;92.29;100064.50;4991761;28;985;-58
2021/10/22 06:23:54;;;;;;;;;;;;;;;9.52;91.61;100062.81;4992286;28;859;-58
2021/10/22 06:26:22;;;;;;;;;;;;;;;10.20;90.85;100069.25;4994381;28;937;-58
2021/10/22 06:28:49;;;;;;;;;;;;;;;10.81;88.84;100062.94;4995813;28;937;-58
2021/10/22 06:31:17;;;;;;;;;;;;;;;10.97;87.08;100076.34;4995618;28;859;-58
2021/10/22 06:33:44;;;;;;;;;;;;;;;10.89;86.07;100064.50;4995613;28;889;-58
2021/10/22 06:36:10;;;;;;;;;;;;;;;11.13;86.72;100070.38;4995506;28;812;-59
2021/10/22 06:38:37;;;;;;;;;;;;;;;11.42;84.29;100068.31;4995290;28;1894;-59
2021/10/22 06:41:07;;;;;;;;;;;;;;;11.57;83.00;100075.34;4995519;28;852;-58
2021/10/22 06:43:36;;;;;;;;;;;;;;;11.47;81.92;100073.41;4995236;28;938;-59
2021/10/22 06:46:04;;;;;;;;;;;;;;;11.49;83.08;100076.56;4995211;28;823;-59
2021/10/22 06:48:30;;;;;;;;;;;;;;;12.05;81.16;100077.50;4995173;28;807;-58
2021/10/22 06:50:58;;;;;;;;;;;;;;;12.49;80.05;100077.97;4995170;28;946;-59
2021/10/22 06:53:24;;;;;;;;;;;;;;;12.85;78.33;100085.97;4995006;28;918;-59
2021/10/22 06:55:50;;;;;;;;;;;;;;;12.91;77.23;100086.28;4995412;28;902;-59
2021/10/22 06:58:17;;;;;;;;;;;;;;;13.28;77.31;100085.50;4995011;28;1886;-59
2021/10/22 07:00:50;;;;;;;;;;;;;;;13.88;75.87;100080.41;4994956;28;796;-59
2021/10/22 07:03:23;;;;;;;;;;;;;;;14.48;72.23;100075.91;4994915;28;986;-59
2021/10/22 07:08:23;;;;;;;;;;;;;;;14.45;68.84;100076.78;4994912;28;684;-58
2021/10/22 07:10:53;;;;;;;;;;;;;;;14.47;68.89;100070.78;4994899;28;803;-59
2021/10/22 07:13:21;;;;;;;;;;;;;;;14.57;68.85;100074.63;4977347;28;1327;-59
2021/10/22 07:15:48;;;;;;;;;;;;;;;14.75;67.42;100077.88;4994504;28;940;-58
2021/10/22 07:18:15;;;;;;;;;;;;;;;14.74;66.98;100072.75;4994406;28;1910;-59
2021/10/22 07:20:41;;;;;;;;;;;;;;;14.84;67.09;100077.34;4994660;28;818;-59
2021/10/22 07:23:10;;;;;;;;;;;;;;;15.35;66.92;100077.97;4994545;28;888;-59
2021/10/22 07:25:38;;;;;;;;;;;;;;;15.61;65.63;100079.00;4994667;28;815;-59
2021/10/22 07:28:09;;;;;;;;;;;;;;;15.75;64.12;100086.31;4994524;28;924;-59
2021/10/22 07:30:35;;;;;;;;;;;;;;;15.52;64.96;100085.16;4994443;28;888;-59
2021/10/22 07:33:02;;;;;;;;;;;;;;;15.86;64.99;100083.28;4994342;28;908;-59
2021/10/22 07:35:30;;;;;;;;;;;;;;;16.02;63.49;100086.09;4994377;28;885;-59
2021/10/22 07:37:57;;;;;;;;;;;;;;;15.89;64.12;100080.41;4993892;28;1894;-59
2021/10/22 07:40:24;;;;;;;;;;;;;;;15.96;64.15;100085.06;4994326;28;878;-59
2021/10/22 07:42:51;;;;;;;;;;;;;;;16.07;63.52;100084.81;4994173;28;915;-59
2021/10/22 07:45:18;;;;;;;;;;;;;;;16.20;64.16;100076.56;4993985;28;919;-59
2021/10/22 07:47:45;;;;;;;;;;;;;;;16.60;63.08;100082.75;4994160;28;858;-59
2021/10/22 07:50:12;;;;;;;;;;;;;;;16.61;63.47;100083.53;4994097;28;842;-59
2021/10/22 07:52:39;;;;;;;;;;;;;;;17.04;63.45;100088.03;4993940;28;927;-59
2021/10/22 07:55:05;;;;;;;;;;;;;;;17.33;61.49;100085.25;4993963;28;898;-59
2021/10/22 07:57:33;;;;;;;;;;;;;;;17.41;61.20;100080.22;4994042;28;902;-59
2021/10/22 08:00:00;;;;;;;;;;;;;;;17.53;60.97;100080.25;4993792;28;1939;-59
2021/10/22 08:02:27;;;;;;;;;;;;;;;17.63;60.52;100083.19;4993817;28;902;-59
2021/10/22 08:04:58;;;;;;;;;;;;;;;17.58;60.63;100087.31;4993840;28;862;-59
2021/10/22 08:07:30;;;;;;;;;;;;;;;17.84;59.94;100087.41;4993654;28;875;-59
2021/10/22 08:09:59;;;;;;;;;;;;;;;17.86;60.13;100093.28;4993991;28;823;-59
2021/10/22 08:12:25;;;;;;;;;;;;;;;17.85;59.50;100086.16;4993633;28;948;-59
2021/10/22 08:14:52;;;;;;;;;;;;;;;18.09;59.25;100083.81;4993733;28;819;-59
2021/10/22 08:17:19;;;;;;;;;;;;;;;17.98;59.00;100084.13;4993945;28;930;-59
2021/10/22 08:20:10;;;;;;;;;;;;;;;17.99;59.29;100085.72;4993443;28;1891;-59
2021/10/22 08:22:34;;;;;;;;;;;;;;;18.21;59.53;100080.22;4992918;28;1618;-59
2021/10/22 08:25:01;;;;;;;;;;;;;;;18.52;58.53;100083.22;4993632;28;799;-59
2021/10/22 08:27:36;;;;;;;;;;;;;;;18.61;57.65;100088.13;4993610;28;870;-59
2021/10/22 08:30:06;;;;;;;;;;;;;;;18.47;57.53;100078.19;4993564;28;851;-59
2021/10/22 08:32:33;;;;;;;;;;;;;;;18.40;57.39;100081.22;4993147;28;870;-59
2021/10/22 08:35:01;;;;;;;;;;;;;;;18.29;57.72;100075.97;4993229;28;871;-59
2021/10/22 08:37:27;;;;;;;;;;;;;;;18.23;57.18;100069.38;4993114;28;908;-59
2021/10/22 08:39:55;;;;;;;;;;;;;;;18.19;58.08;100070.72;4993207;28;1890;-59
2021/10/22 08:42:23;;;;;;;;;;;;;;;18.39;57.40;100076.84;4993091;28;823;-59
2021/10/22 08:44:53;;;;;;;;;;;;;;;18.44;57.56;100076.28;4992965;28;803;-59
2021/10/22 08:47:29;;;;;;;;;;;;;;;18.42;57.84;100075.19;4992771;28;819;-59
2021/10/22 08:50:04;;;;;;;;;;;;;;;18.39;57.02;100078.88;4992652;28;835;-59
2021/10/22 08:52:31;;;;;;;;;;;;;;;18.34;57.82;100075.41;4992955;28;878;-59
2021/10/22 08:54:57;;;;;;;;;;;;;;;18.31;57.51;100070.72;4992857;28;843;-59
2021/10/22 08:57:24;;;;;;;;;;;;;;;18.33;57.96;100073.06;4992764;28;922;-59
2021/10/22 08:59:56;;;;;;;;;;;;;;;18.42;58.38;100066.78;4992739;28;1882;-59
2021/10/22 09:02:25;;;;;;;;;;;;;;;18.48;57.08;100068.56;4992717;28;951;-59
2021/10/22 09:04:56;;;;;;;;;;;;;;;18.33;57.58;100057.06;4992722;28;865;-59
2021/10/22 09:07:37;;;;;;;;;;;;;;;18.47;57.98;100064.19;4992635;28;910;-59
2021/10/22 09:10:14;;;;;;;;;;;;;;;18.62;57.30;100067.28;4992470;28;891;-59
2021/10/22 09:13:01;;;;;;;;;;;;;;;18.67;57.27;100063.13;4992619;28;1062;-59
2021/10/22 09:15:32;;;;;;;;;;;;;;;18.64;57.61;100066.84;4975180;28;2900;-59
2021/10/22 09:18:02;;;;;;;;;;;;;;;18.81;57.25;100054.28;4975117;28;1990;-59
2021/10/22 09:20:29;;;;;;;;;;;;;;;19.01;57.35;100054.00;4992473;28;902;-59
2021/10/22 09:22:58;;;;;;;;;;;;;;;19.21;55.52;100053.69;4992481;28;819;-59
2021/10/22 09:25:27;;;;;;;;;;;;;;;19.19;55.34;100047.75;4992437;28;897;-59
2021/10/22 09:27:56;;;;;;;;;;;;;;;19.23;55.86;100051.19;4992329;28;924;-59
2021/10/22 09:30:23;;;;;;;;;;;;;;;19.38;55.29;100057.84;4992250;28;935;-59
2021/10/22 09:32:51;;;;;;;;;;;;;;;19.62;54.53;100054.56;4974937;28;1170;-59
2021/10/22 09:35:29;;;;;;;;;;;;;;;19.86;53.62;100054.06;4992282;28;846;-59
2021/10/22 09:38:05;;;;;;;;;;;;;;;19.94;53.99;100052.56;4992247;28;2007;-59
2021/10/22 09:40:31;;;;;;;;;;;;;;;19.95;54.10;100049.28;4992120;28;941;-59
2021/10/22 09:43:09;;;;;;;;;;;;;;;19.99;52.74;100057.56;4992087;28;878;-59
2021/10/22 09:45:36;;;;;;;;;;;;;;;19.94;53.33;100053.31;4992088;28;911;-59
2021/10/22 09:48:21;;;;;;;;;;;;;;;20.14;52.34;100049.34;4992073;28;978;-59
2021/10/22 09:50:48;;;;;;;;;;;;;;;20.15;52.26;100050.91;4992249;28;877;-59
2021/10/22 09:53:23;;;;;;;;;;;;;;;20.08;51.26;100052.00;4992114;28;826;-59
2021/10/22 09:56:10;;;;;;;;;;;;;;;20.10;52.10;100040.28;4992082;28;866;-59
2021/10/22 09:58:36;;;;;;;;;;;;;;;20.23;51.06;100035.34;4991849;28;1967;-59
2021/10/22 10:01:12;;;;;;;;;;;;;;;20.17;51.16;100045.63;4995638;28;927;-59
2021/10/22 10:03:40;;;;;;;;;;;;;;;20.16;50.54;100042.03;4978860;28;803;-59
2021/10/22 10:06:07;;;;;;;;;;;;;;;20.38;49.06;100036.31;4996033;28;827;-59
2021/10/22 10:08:35;;;;;;;;;;;;;;;20.44;48.80;100025.28;4995979;28;871;-59
2021/10/22 10:11:03;;;;;;;;;;;;;;;20.61;48.24;100031.38;4995993;28;892;-59
2021/10/22 10:13:35;;;;;;;;;;;;;;;20.80;48.39;100032.97;4996195;28;787;-59
2021/10/22 10:16:03;;;;;;;;;;;;;;;20.90;48.58;100024.53;4995628;28;933;-59
2021/10/22 10:18:34;;;;;;;;;;;;;;;20.88;48.07;100015.81;4995500;28;1903;-59
2021/10/22 10:21:02;;;;;;;;;;;;;;;21.12;47.67;100025.16;4995708;28;807;-59
2021/10/22 10:23:29;;;;;;;;;;;;;;;21.08;48.36;100020.94;4995667;28;828;-59
2021/10/22 10:26:17;;;;;;;;;;;;;;;21.09;47.44;100008.47;4995607;28;890;-59
2021/10/22 10:28:43;;;;;;;;;;;;;;;21.14;47.35;100005.00;4995509;28;953;-59
2021/10/22 10:31:28;;;;;;;;;;;;;;;21.18;46.63;100008.44;4995483;28;838;-59
2021/10/22 10:33:55;;;;;;;;;;;;;;;21.17;46.54;99998.47;4995373;28;947;-59
2021/10/22 10:36:40;;;;;;;;;;;;;;;21.29;46.32;100005.13;4995435;28;823;-59
2021/10/22 10:39:07;;;;;;;;;;;;;;;21.27;45.94;99999.22;4995368;28;1943;-59
2021/10/22 10:41:34;;;;;;;;;;;;;;;21.28;46.13;100007.16;4995315;28;827;-59
2021/10/22 10:44:30;;;;;;;;;;;;;;;21.34;46.49;99998.91;4995233;28;863;-59
2021/10/22 10:46:57;;;;;;;;;;;;;;;21.55;45.36;100009.16;4982825;28;1508;-59
2021/10/22 10:49:44;;;;;;;;;;;;;;;21.71;44.63;100007.22;4995281;28;839;-59
2021/10/22 10:52:31;;;;;;;;;;;;;;;21.73;44.74;100008.31;4984819;28;1864;-59
2021/10/22 10:55:15;;;;;;;;;;;;;;;21.79;44.79;100003.59;4984716;28;1531;-59
2021/10/22 10:57:46;;;;;;;;;;;;;;;21.81;44.31;100001.09;4995001;28;890;-59
2021/10/22 11:00:16;;;;;;;;;;;;;;;21.76;44.49;99987.69;4994929;28;1885;-59
2021/10/22 11:03:02;;;;;;;;;;;;;;;21.93;44.97;99998.53;4994909;28;963;-59
2021/10/22 11:05:49;;;;;;;;;;;;;;;22.07;44.66;99983.78;4994868;28;866;-59
2021/10/22 11:08:17;;;;;;;;;;;;;;;22.25;44.39;99987.75;4994935;28;827;-59
2021/10/22 11:11:01;;;;;;;;;;;;;;;22.41;44.60;99981.72;4994143;28;1165;-59
2021/10/22 11:13:43;;;;;;;;;;;;;;;22.43;44.34;99982.78;4994928;28;1000;-59
2021/10/22 11:16:26;;;;;;;;;;;;;;;22.65;43.72;99980.91;4994761;28;962;-59
2021/10/22 11:18:54;;;;;;;;;;;;;;;22.81;42.19;99983.28;4976960;28;1910;-59
2021/10/22 11:21:22;;;;;;;;;;;;;;;22.81;42.33;99983.28;4994616;28;846;-59
2021/10/22 11:23:49;;;;;;;;;;;;;;;22.87;42.32;99977.72;4994570;28;858;-59
2021/10/22 11:26:21;;;;;;;;;;;;;;;23.05;42.17;99968.38;4994401;28;926;-59
2021/10/22 11:28:48;;;;;;;;;;;;;;;23.13;40.84;99966.69;4994438;28;905;-59
2021/10/22 11:31:33;;;;;;;;;;;;;;;23.08;41.45;99970.97;4994374;28;898;-59
2021/10/22 11:34:02;;;;;;;;;;;;;;;22.96;41.38;99975.63;4994541;28;914;-59
2021/10/22 11:36:30;;;;;;;;;;;;;;;22.82;42.09;99977.13;4994285;28;921;-59
2021/10/22 11:38:56;;;;;;;;;;;;;;;22.83;42.20;99970.25;4994077;28;1914;-59
2021/10/22 11:41:23;;;;;;;;;;;;;;;22.74;42.40;99973.13;4994196;28;819;-59
2021/10/22 11:44:06;;;;;;;;;;;;;;;22.90;42.20;99965.50;4994060;28;974;-59
2021/10/22 11:46:46;;;;;;;;;;;;;;;23.17;41.66;99965.25;4994361;28;848;-59
2021/10/22 11:49:25;;;;;;;;;;;;;;;23.08;41.73;99961.75;4993971;28;936;-59
2021/10/22 11:51:53;;;;;;;;;;;;;;;23.11;40.98;99957.94;4994220;28;807;-59
2021/10/22 11:54:20;;;;;;;;;;;;;;;23.23;41.12;99952.00;4994042;28;780;-59
2021/10/22 11:56:47;;;;;;;;;;;;;;;23.41;40.53;99953.88;4994129;28;932;-59
2021/10/22 11:59:14;;;;;;;;;;;;;;;23.47;40.60;99947.53;4993785;28;1951;-59
2021/10/22 12:01:41;;;;;;;;;;;;;;;23.57;40.12;99946.94;4993809;28;1050;-59
2021/10/22 12:04:28;;;;;;;;;;;;;;;23.75;40.35;99953.63;4993687;28;953;-59
2021/10/22 12:07:05;;;;;;;;;;;;;;;23.83;39.89;99947.09;4993901;28;1803;-59
2021/10/22 12:09:33;;;;;;;;;;;;;;;23.85;39.77;99946.59;4993618;28;988;-59
2021/10/22 12:12:10;;;;;;;;;;;;;;;23.95;39.93;99942.38;4993495;28;950;-59
2021/10/22 12:14:44;;;;;;;;;;;;;;;24.23;39.21;99936.31;4993687;28;804;-59
2021/10/22 12:17:18;;;;;;;;;;;;;;;24.15;39.04;99940.84;4993621;28;952;-59
2021/10/22 12:19:46;;;;;;;;;;;;;;;23.99;39.25;99931.66;4993380;28;1902;-59
2021/10/22 12:22:16;;;;;;;;;;;;;;;23.88;39.32;99925.09;4993395;28;1069;-59
2021/10/22 12:24:47;;;;;;;;;;;;;;;23.99;39.56;99936.53;4993297;28;807;-59
2021/10/22 12:27:14;;;;;;;;;;;;;;;24.10;39.18;99933.09;4993332;28;938;-59
2021/10/22 12:29:53;;;;;;;;;;;;;;;24.33;39.33;99931.31;4993256;28;867;-59
2021/10/22 12:32:29;;;;;;;;;;;;;;;24.49;39.22;99927.16;4993235;28;867;-59
2021/10/22 12:34:55;;;;;;;;;;;;;;;24.63;38.83;99927.06;4975752;28;1227;-59
2021/10/22 12:37:32;;;;;;;;;;;;;;;24.57;39.03;99920.56;4993225;28;922;-59
2021/10/22 12:39:58;;;;;;;;;;;;;;;24.39;39.16;99923.69;4992865;28;1973;-59
2021/10/22 12:42:27;;;;;;;;;;;;;;;24.30;39.23;99926.66;4993004;28;938;-59
2021/10/22 12:45:12;;;;;;;;;;;;;;;24.26;39.06;99915.59;4993015;28;982;-59
2021/10/22 12:47:38;;;;;;;;;;;;;;;24.55;38.84;99914.66;4992842;28;943;-59
2021/10/22 12:50:06;;;;;;;;;;;;;;;24.43;39.07;99921.41;4993024;28;898;-59
2021/10/22 12:52:32;;;;;;;;;;;;;;;24.45;38.92;99916.03;4992841;28;847;-59
2021/10/22 12:54:59;;;;;;;;;;;;;;;24.65;38.78;99916.03;4993169;28;873;-59
2021/10/22 12:57:26;;;;;;;;;;;;;;;24.76;38.65;99911.78;4975567;28;830;-59
2021/10/22 12:59:53;;;;;;;;;;;;;;;24.55;38.60;99911.81;4992687;28;1886;-59
2021/10/22 13:02:32;;;;;;;;;;;;;;;24.55;38.43;99922.34;4992791;28;874;-59
2021/10/22 13:05:10;;;;;;;;;;;;;;;24.63;38.34;99915.75;4993406;28;791;-59
2021/10/22 13:11:07;;;;;;;;;;;;;;;24.75;38.38;99918.69;4992568;28;669;-59
2021/10/22 13:21:14;;;;;;;;;;;;;;;24.60;38.82;99913.94;4992830;28;684;-59
2021/10/22 13:23:41;;;;;;;;;;;;;;;24.40;38.25;99911.88;4992459;28;874;-59
2021/10/22 13:26:08;;;;;;;;;;;;;;;24.33;38.93;99915.16;4992460;28;831;-59
2021/10/22 13:28:35;;;;;;;;;;;;;;;24.33;38.44;99908.72;4992373;28;816;-59
2021/10/22 13:31:07;;;;;;;;;;;;;;;24.22;38.64;99907.31;4992276;28;981;-59
2021/10/22 13:33:34;;;;;;;;;;;;;;;24.15;39.21;99906.97;4992102;28;954;-59
2021/10/22 13:36:03;;;;;;;;;;;;;;;23.98;39.25;99906.75;4992167;28;834;-59
2021/10/22 13:38:30;;;;;;;;;;;;;;;23.62;39.69;99911.63;4991950;28;1910;-59
2021/10/22 13:40:58;;;;;;;;;;;;;;;23.55;40.08;99909.19;4992237;28;851;-59
2021/10/22 13:43:25;;;;;;;;;;;;;;;23.40;40.18;99909.22;4974737;28;852;-59
2021/10/22 13:45:52;;;;;;;;;;;;;;;23.26;40.57;99901.56;4992332;28;854;-59
2021/10/22 13:48:19;;;;;;;;;;;;;;;23.12;40.80;99903.91;4992125;28;917;-59
2021/10/22 13:50:46;;;;;;;;;;;;;;;22.94;41.63;99901.28;4992088;28;947;-59
2021/10/22 13:53:17;;;;;;;;;;;;;;;22.71;41.77;99906.50;4992372;28;930;-59
2021/10/22 13:55:44;;;;;;;;;;;;;;;22.40;42.05;99904.13;4991909;28;855;-59
2021/10/22 13:58:11;;;;;;;;;;;;;;;22.09;42.50;99910.13;4992348;28;1945;-59
2021/10/22 14:00:38;;;;;;;;;;;;;;;21.91;43.06;99916.63;4992050;28;862;-59
2021/10/22 14:03:05;;;;;;;;;;;;;;;21.85;43.22;99912.91;4992766;28;882;-58
2021/10/22 14:05:31;;;;;;;;;;;;;;;21.75;43.30;99918.59;4991966;28;819;-58
2021/10/22 14:07:58;;;;;;;;;;;;;;;21.59;43.27;99916.19;4991944;28;866;-58
2021/10/22 14:10:26;;;;;;;;;;;;;;;21.41;43.72;99917.81;4991941;28;858;-58
2021/10/22 14:13:07;;;;;;;;;;;;;;;21.28;43.88;99917.22;4992493;28;969;-58
2021/10/22 14:31:20;;;;;;;;;;;;;;;20.43;45.81;99916.25;4991713;28;821;-58
2021/10/22 14:33:45;;;;;;;;;;;;;;;20.27;46.30;99911.72;4991686;28;863;-59
2021/10/22 14:36:12;;;;;;;;;;;;;;;20.12;46.95;99919.97;4991638;28;870;-59
2021/10/22 14:38:39;;;;;;;;;;;;;;;19.96;47.25;99921.03;4991528;28;1898;-59
2021/10/22 14:41:05;;;;;;;;;;;;;;;19.82;47.86;99925.19;4991662;28;928;-58
2021/10/22 14:43:38;;;;;;;;;;;;;;;19.69;48.41;99922.47;4991642;28;930;-58
2021/10/22 14:48:37;;;;;;;;;;;;;;;19.30;48.88;99921.25;4995603;28;656;-59
2021/10/22 14:51:08;;;;;;;;;;;;;;;19.11;49.45;99918.34;4995139;28;923;-59
2021/10/22 14:56:01;;;;;;;;;;;;;;;18.86;50.26;99919.31;4995133;28;744;-59
2021/10/22 14:58:28;;;;;;;;;;;;;;;18.71;50.53;99923.81;4995028;28;1894;-59
2021/10/22 15:00:55;;;;;;;;;;;;;;;18.53;51.03;99922.44;4995029;28;880;-59
2021/10/22 15:03:21;;;;;;;;;;;;;;;18.34;51.41;99912.34;4977554;28;819;-58
2021/10/22 15:05:48;;;;;;;;;;;;;;;18.13;52.11;99925.06;4994926;28;884;-58
2021/10/22 15:08:15;;;;;;;;;;;;;;;17.94;52.63;99926.88;4994929;28;799;-59
2021/10/22 15:10:42;;;;;;;;;;;;;;;17.73;53.32;99922.72;4995040;28;972;-59
2021/10/22 15:13:12;;;;;;;;;;;;;;;17.48;54.12;99929.91;4994832;28;814;-59
2021/10/22 15:15:38;;;;;;;;;;;;;;;17.23;54.62;99925.09;4994778;28;886;-58
2021/10/22 15:18:05;;;;;;;;;;;;;;;17.03;55.17;99938.47;4994770;28;1902;-58
2021/10/22 15:20:33;;;;;;;;;;;;;;;16.81;56.02;99932.72;4994585;28;947;-58
2021/10/22 15:23:00;;;;;;;;;;;;;;;16.42;57.66;99935.31;4977263;28;764;-59
2021/10/22 15:25:26;;;;;;;;;;;;;;;16.07;58.94;99935.03;4994689;28;795;-58
2021/10/22 15:27:53;;;;;;;;;;;;;;;15.77;59.83;99932.59;4994583;28;843;-58
2021/10/22 15:30:20;;;;;;;;;;;;;;;15.50;60.60;99934.38;4994501;28;862;-58
2021/10/22 15:32:47;;;;;;;;;;;;;;;15.27;61.57;99935.28;4994341;28;961;-58
2021/10/22 15:35:13;;;;;;;;;;;;;;;15.08;61.94;99936.91;4994260;28;899;-58
2021/10/22 15:37:40;;;;;;;;;;;;;;;14.97;62.53;99938.34;4994183;28;850;-58
2021/10/22 15:40:08;;;;;;;;;;;;;;;14.84;63.10;99938.97;4976806;28;2598;-58
2021/10/22 15:42:35;;;;;;;;;;;;;;;14.71;63.50;99943.63;4994245;28;902;-58
2021/10/22 15:45:02;;;;;;;;;;;;;;;14.57;63.85;99947.44;4994227;28;955;-58
2021/10/22 15:47:29;;;;;;;;;;;;;;;14.47;64.24;99943.66;4994199;28;886;-58
2021/10/22 15:49:56;;;;;;;;;;;;;;;14.38;64.60;99942.63;4994022;28;896;-59
2021/10/22 15:52:26;;;;;;;;;;;;;;;14.34;64.92;99947.47;4993971;28;1032;-58
2021/10/22 15:54:54;;;;;;;;;;;;;;;14.35;64.87;99957.38;4993989;28;946;-58
2021/10/22 15:57:22;;;;;;;;;;;;;;;14.28;65.03;99955.53;4993563;28;981;-58
2021/10/22 15:59:49;;;;;;;;;;;;;;;14.15;65.39;99958.13;4993940;28;1914;-58
2021/10/22 16:02:16;;;;;;;;;;;;;;;14.01;65.79;99959.13;4993741;28;877;-58
2021/10/22 16:04:43;;;;;;;;;;;;;;;13.91;66.38;99965.66;4993777;28;919;-58
2021/10/22 16:10:25;;;;;;;;;;;;;;;13.71;66.95;99964.78;4993765;28;669;-58
2021/10/22 16:17:52;;;;;;;;;;;;;;;13.50;67.56;99983.31;4994061;28;1478;-58
2021/10/22 16:20:19;;;;;;;;;;;;;;;13.40;68.02;99987.84;4993442;28;1918;-58
2021/10/22 16:22:46;;;;;;;;;;;;;;;13.34;68.26;99992.28;4993652;28;788;-58
2021/10/22 16:25:12;;;;;;;;;;;;;;;13.32;68.62;99988.34;4993595;28;804;-58
2021/10/22 16:27:39;;;;;;;;;;;;;;;13.32;68.30;99996.69;4994022;28;843;-58
2021/10/22 16:30:06;;;;;;;;;;;;;;;13.27;68.47;99993.13;4993577;28;1008;-58
2021/10/22 16:32:35;;;;;;;;;;;;;;;13.24;68.56;100007.81;4993607;28;877;-58
2021/10/22 16:37:48;;;;;;;;;;;;;;;13.35;68.73;100004.16;4993624;28;653;-58
2021/10/22 16:40:14;;;;;;;;;;;;;;;13.48;68.32;100010.72;4993898;28;1939;-58
2021/10/22 16:42:41;;;;;;;;;;;;;;;13.57;68.02;100010.19;4993315;28;882;-58
2021/10/22 16:45:13;;;;;;;;;;;;;;;13.62;67.72;100013.31;4993184;28;1089;-58
2021/10/22 16:47:40;;;;;;;;;;;;;;;13.65;67.85;100011.69;4992942;28;954;-58
2021/10/22 16:50:09;;;;;;;;;;;;;;;13.62;67.94;100013.31;4992946;28;876;-58
2021/10/22 16:52:37;;;;;;;;;;;;;;;13.51;68.28;100020.22;4992870;28;947;-58
2021/10/22 16:55:05;;;;;;;;;;;;;;;13.34;68.45;100013.69;4992944;28;827;-58
2021/10/22 16:57:32;;;;;;;;;;;;;;;13.21;68.90;100025.31;4992843;28;892;-58
2021/10/22 16:59:58;;;;;;;;;;;;;;;13.12;69.14;100029.78;4992872;28;1918;-58
2021/10/22 17:02:26;;;;;;;;;;;;;;;12.98;69.68;100030.75;4992790;28;871;-58
2021/10/22 17:04:53;;;;;;;;;;;;;;;12.92;70.06;100030.41;4992783;28;847;-58
2021/10/22 17:07:26;;;;;;;;;;;;;;;12.84;70.38;100028.91;4993320;28;922;-58
2021/10/22 17:09:52;;;;;;;;;;;;;;;12.73;70.67;100037.31;4992058;28;824;-58
2021/10/22 17:12:21;;;;;;;;;;;;;;;12.66;70.91;100034.63;4992712;28;831;-58
2021/10/22 17:14:48;;;;;;;;;;;;;;;12.63;71.09;100043.75;4992478;28;927;-58
2021/10/22 17:17:15;;;;;;;;;;;;;;;12.63;71.06;100033.47;4992915;28;989;-58
2021/10/22 17:19:42;;;;;;;;;;;;;;;12.65;71.21;100033.03;4992297;28;1914;-58
2021/10/22 17:22:10;;;;;;;;;;;;;;;12.64;71.03;100035.03;4992364;28;864;-58
2021/10/22 17:24:37;;;;;;;;;;;;;;;12.58;71.26;100035.91;4992726;28;847;-58
2021/10/22 17:27:04;;;;;;;;;;;;;;;12.50;71.62;100037.16;4992412;28;795;-58
2021/10/22 17:29:30;;;;;;;;;;;;;;;12.40;71.56;100041.63;4992371;28;811;-58
2021/10/22 17:31:57;;;;;;;;;;;;;;;12.31;72.22;100038.50;4975011;28;811;-58
2021/10/22 17:34:23;;;;;;;;;;;;;;;12.30;72.18;100039.72;4992263;28;851;-58
2021/10/22 17:36:50;;;;;;;;;;;;;;;12.24;72.80;100039.34;4992176;28;970;-58
2021/10/22 17:39:17;;;;;;;;;;;;;;;12.20;73.00;100041.38;4992157;28;1894;-58
2021/10/22 17:41:44;;;;;;;;;;;;;;;12.22;73.05;100048.06;4992113;28;923;-58
2021/10/22 17:44:10;;;;;;;;;;;;;;;12.32;73.06;100045.63;4992384;28;875;-58
2021/10/22 17:46:38;;;;;;;;;;;;;;;12.40;72.62;100042.41;4992378;28;886;-58
2021/10/22 17:49:05;;;;;;;;;;;;;;;12.41;72.57;100041.19;4992047;28;1166;-58
2021/10/22 17:51:31;;;;;;;;;;;;;;;12.40;72.71;100034.06;4992129;28;878;-58
2021/10/22 17:53:59;;;;;;;;;;;;;;;12.34;72.92;100037.69;4992032;28;939;-58
2021/10/22 17:56:26;;;;;;;;;;;;;;;12.26;73.10;100034.97;4992049;28;1062;-58
2021/10/22 17:58:52;;;;;;;;;;;;;;;12.21;73.59;100042.94;4992027;28;1886;-58
2021/10/22 18:01:19;;;;;;;;;;;;;;;12.26;73.31;100042.50;4992057;28;847;-58
2021/10/22 18:03:46;;;;;;;;;;;;;;;12.30;73.12;100037.72;4992082;28;843;-58
2021/10/22 18:06:13;;;;;;;;;;;;;;;12.39;72.78;100028.94;4991825;28;970;-58
2021/10/22 18:08:40;;;;;;;;;;;;;;;12.38;72.97;100033.69;4992150;28;811;-58
2021/10/22 18:11:08;;;;;;;;;;;;;;;12.41;72.71;100030.09;4991807;28;891;-58
2021/10/22 18:13:35;;;;;;;;;;;;;;;12.48;72.51;100032.00;4991848;28;967;-58
2021/10/22 18:16:03;;;;;;;;;;;;;;;12.53;72.37;100028.81;4992191;28;916;-58
2021/10/22 18:18:30;;;;;;;;;;;;;;;12.51;72.41;100030.44;4991598;28;1911;-58
2021/10/22 18:20:56;;;;;;;;;;;;;;;12.43;72.52;100027.69;4993790;28;827;-58
2021/10/22 18:23:23;;;;;;;;;;;;;;;12.37;72.68;100025.78;4995884;28;842;-58
2021/10/22 18:25:51;;;;;;;;;;;;;;;12.31;72.81;100030.19;4995644;28;961;-58
2021/10/22 18:28:33;;;;;;;;;;;;;;;12.24;73.25;100031.03;4995844;28;901;-58
2021/10/22 18:31:03;;;;;;;;;;;;;;;12.21;73.54;100034.63;4995537;28;927;-58
2021/10/22 18:33:34;;;;;;;;;;;;;;;12.16;73.68;100029.50;4995403;28;859;-58
2021/10/22 18:36:02;;;;;;;;;;;;;;;12.13;73.75;100031.13;4995446;28;927;-58
2021/10/22 18:38:29;;;;;;;;;;;;;;;12.11;73.67;100021.66;4995316;28;1958;-58
2021/10/22 18:40:55;;;;;;;;;;;;;;;12.02;74.12;100025.66;4977860;28;708;-58
2021/10/22 18:43:21;;;;;;;;;;;;;;;11.88;74.08;100023.00;4995264;28;1029;-58
2021/10/22 18:45:47;;;;;;;;;;;;;;;11.84;74.68;100027.72;4995245;28;907;-58
2021/10/22 18:48:14;;;;;;;;;;;;;;;11.86;74.76;100030.88;4995270;28;1007;-58
2021/10/22 18:50:41;;;;;;;;;;;;;;;12.00;74.64;100028.06;4995070;28;922;-58
2021/10/22 18:53:07;;;;;;;;;;;;;;;12.08;74.46;100025.22;4995156;28;867;-58
2021/10/22 18:55:34;;;;;;;;;;;;;;;12.09;74.24;100029.56;4994996;28;899;-58
2021/10/22 18:58:01;;;;;;;;;;;;;;;12.08;74.38;100028.00;4995155;28;874;-58